West Acres, Pennsylvania
Current Conditions -  °F | °C
As of 8:53 PM on Saturday 22 Nov 2014 (Local Time) from KSEG Reporting Station
Scattered Clouds Scattered Clouds  
Wind Chill:   Ceiling: Unl
Heat Index:   Visibility: 10mi
Dew Point: -8°   Wind: 3mph
Humidity: 46%   Direction: 230°SW
Pressure: 30.2"   Gusts: NA
Location:  40.9885°N, 76.9787°W
Report Text: KSEG 230153Z AUTO 23003KT 10SM SCT110 03/M08 A3020 RMK AO2 SLP230 T00281078
Loading
Personal Weather Stations






























Interactive Weather Map New forecast layout! Learn more

10-Day Weather Forecast

Advertisements
Track Severe Weather on mobile